Time;durP1;ratioP1;P1;durP2;ratioP2;P2;SDS_P1;SDS_P2;PMS_P1;PMS_P2;Temp;Humidity;BMP_temperature;BMP_pressure;BME280_temperature;BME280_humidity;BME280_pressure;Samples;Min_cycle;Max_cycle;Signal;HPM_P1;HPM_P2
2023/09/11 00:01:55;;;;;;;43.65;20.95;;;;;;;;;;8437752;28;20044;-91
2023/09/11 00:06:10;;;;;;;43.53;21.38;;;;;;;;;;8440466;28;20071;-91
2023/09/11 00:10:22;;;;;;;37.78;20.73;;;;;;;;;;8413629;28;20384;-91
2023/09/11 00:14:28;;;;;;;40.95;20.23;;;;;;;;;;8424521;28;20079;-91
2023/09/11 00:18:37;;;;;;;49.25;20.25;;;;;;;;;;8406580;28;20151;-91
2023/09/11 00:22:43;;;;;;;51.28;21.13;;;;;;;;;;8402540;28;20051;-94
2023/09/11 00:26:48;;;;;;;42.35;19.60;;;;;;;;;;8391597;28;20110;-94
2023/09/11 00:31:16;;;;;;;47.65;19.50;;;;;;;;;;8408610;28;20056;-91
2023/09/11 00:35:22;;;;;;;44.38;20.20;;;;;;;;;;8408723;28;20438;-91
2023/09/11 00:39:34;;;;;;;37.05;19.10;;;;;;;;;;8409681;28;20146;-92
2023/09/11 00:43:37;;;;;;;;;;;;;;;;;;8400522;28;20059;-93
2023/09/11 00:47:41;;;;;;;40.92;18.30;;;;;;;;;;8395554;28;19944;-94
2023/09/11 00:51:46;;;;;;;42.83;19.40;;;;;;;;;;8425089;28;20036;-93
2023/09/11 00:55:50;;;;;;;36.90;20.23;;;;;;;;;;8408001;28;20059;-93
2023/09/11 00:59:54;;;;;;;40.42;18.95;;;;;;;;;;8394994;28;20048;-91
2023/09/11 01:03:57;;;;;;;43.10;19.52;;;;;;;;;;8413347;28;20491;-90
2023/09/11 01:08:04;;;;;;;41.45;19.50;;;;;;;;;;8408361;28;20056;-95
2023/09/11 01:12:08;;;;;;;42.72;19.15;;;;;;;;;;8419879;28;20052;-92
2023/09/11 01:16:22;;;;;;;37.53;19.80;;;;;;;;;;8420378;28;20082;-92
2023/09/11 01:21:05;;;;;;;33.67;17.48;;;;;;;;;;8446747;28;20490;-94
2023/09/11 01:25:31;;;;;;;39.15;19.23;;;;;;;;;;8432466;28;20128;-93
2023/09/11 01:29:51;;;;;;;41.53;18.95;;;;;;;;;;8445169;28;20040;-92
2023/09/11 01:33:55;;;;;;;46.83;20.63;;;;;;;;;;8457086;28;20093;-93
2023/09/11 01:38:03;;;;;;;53.97;20.33;;;;;;;;;;8443721;28;20040;-92
2023/09/11 01:42:11;;;;;;;47.35;21.25;;;;;;;;;;8461276;28;20036;-92
2023/09/11 01:46:24;;;;;;;42.13;18.92;;;;;;;;;;8460341;28;20080;-92
2023/09/11 01:50:33;;;;;;;44.92;20.13;;;;;;;;;;8460819;28;20052;-93
2023/09/11 01:55:00;;;;;;;41.83;20.63;;;;;;;;;;8439089;28;20063;-95
2023/09/11 01:59:05;;;;;;;41.95;18.63;;;;;;;;;;8460692;28;20050;-94
2023/09/11 02:07:34;;;;;;;46.83;20.48;;;;;;;;;;8447703;28;20096;-92
2023/09/11 02:11:39;;;;;;;40.88;18.27;;;;;;;;;;8445899;28;20103;-89
2023/09/11 02:16:04;;;;;;;40.90;19.15;;;;;;;;;;8462444;28;20060;-95
2023/09/11 02:20:13;;;;;;;44.38;21.60;;;;;;;;;;8463270;28;20120;-91
2023/09/11 02:24:18;;;;;;;43.13;19.92;;;;;;;;;;8460499;28;20040;-91
2023/09/11 02:28:44;;;;;;;53.45;25.20;;;;;;;;;;8446272;28;20048;-93
2023/09/11 02:32:49;;;;;;;92.72;42.05;;;;;;;;;;8444967;28;20590;-91
2023/09/11 02:36:56;;;;;;;81.32;34.58;;;;;;;;;;8460284;28;20048;-91
2023/09/11 02:45:19;;;;;;;51.97;23.08;;;;;;;;;;8460799;28;20088;-94
2023/09/11 02:49:23;;;;;;;57.97;23.75;;;;;;;;;;8445160;28;20067;-93
2023/09/11 02:53:35;;;;;;;44.53;21.30;;;;;;;;;;8450938;28;20151;-93
2023/09/11 02:57:47;;;;;;;46.97;19.92;;;;;;;;;;8430727;28;20048;-93
2023/09/11 03:01:54;;;;;;;45.55;19.60;;;;;;;;;;8438118;28;20044;-92
2023/09/11 03:06:08;;;;;;;45.38;18.75;;;;;;;;;;8456466;28;20056;-93
2023/09/11 03:10:14;;;;;;;46.85;19.80;;;;;;;;;;8450446;28;20062;-90
2023/09/11 03:14:20;;;;;;;39.13;17.92;;;;;;;;;;8434233;28;20067;-94
2023/09/11 03:18:38;;;;;;;45.10;17.50;;;;;;;;;;8452949;28;20048;-93
2023/09/11 03:22:54;;;;;;;50.00;19.52;;;;;;;;;;8482559;22;20115;-93
2023/09/11 03:26:58;;;;;;;51.42;20.50;;;;;;;;;;8486002;28;20100;-90
2023/09/11 03:31:03;;;;;;;45.00;19.50;;;;;;;;;;8482770;28;20040;-94
2023/09/11 03:35:08;;;;;;;46.78;20.15;;;;;;;;;;8482771;28;20050;-91
2023/09/11 03:39:15;;;;;;;49.60;20.15;;;;;;;;;;8477221;28;20129;-93
2023/09/11 03:43:26;;;;;;;50.88;20.30;;;;;;;;;;8477827;28;20055;-91
2023/09/11 03:47:28;;;;;;;47.17;20.55;;;;;;;;;;8479907;28;20104;-94
2023/09/11 03:51:32;;;;;;;48.05;21.70;;;;;;;;;;8406923;28;20125;-93
2023/09/11 03:55:37;;;;;;;53.28;21.83;;;;;;;;;;8414449;28;20098;-93
2023/09/11 03:59:41;;;;;;;50.35;21.77;;;;;;;;;;8403169;28;20084;-94
2023/09/11 04:03:44;;;;;;;39.97;19.17;;;;;;;;;;8391649;28;20144;-93
2023/09/11 04:07:47;;;;;;;45.85;20.45;;;;;;;;;;8395126;28;20053;-90
2023/09/11 04:12:01;;;;;;;45.58;20.35;;;;;;;;;;8393014;28;20048;-90
2023/09/11 04:16:06;;;;;;;43.45;20.30;;;;;;;;;;8449101;28;20056;-94
2023/09/11 04:20:10;;;;;;;50.15;21.50;;;;;;;;;;8456501;28;20089;-95
2023/09/11 04:24:13;;;;;;;48.13;20.73;;;;;;;;;;8466664;28;20039;-94
2023/09/11 04:28:17;;;;;;;46.65;20.20;;;;;;;;;;8443095;28;20043;-95
2023/09/11 04:32:23;;;;;;;42.10;18.92;;;;;;;;;;8455112;28;20047;-94
2023/09/11 04:36:26;;;;;;;40.80;19.88;;;;;;;;;;8469460;28;20067;-94
2023/09/11 04:40:29;;;;;;;41.83;21.30;;;;;;;;;;8459409;28;20161;-93
2023/09/11 04:44:33;;;;;;;45.53;20.70;;;;;;;;;;8435024;28;20072;-95
2023/09/11 04:48:37;;;;;;;36.03;18.48;;;;;;;;;;8463615;28;20047;-92
2023/09/11 04:52:41;;;;;;;38.17;19.40;;;;;;;;;;8456133;28;20047;-92
2023/09/11 04:56:44;;;;;;;38.95;18.35;;;;;;;;;;8439663;28;20110;-95
2023/09/11 05:00:51;;;;;;;36.60;18.80;;;;;;;;;;8453378;28;20075;-93
2023/09/11 05:04:57;;;;;;;34.60;17.27;;;;;;;;;;8468563;28;20051;-95
2023/09/11 05:09:00;;;;;;;31.38;17.48;;;;;;;;;;8465234;27;20043;-91
2023/09/11 05:13:04;;;;;;;33.63;16.92;;;;;;;;;;8465236;28;20082;-95
2023/09/11 05:17:08;;;;;;;28.02;17.15;;;;;;;;;;8478615;28;20091;-92
2023/09/11 05:21:12;;;;;;;27.95;15.00;;;;;;;;;;8465609;28;20079;-94
2023/09/11 05:25:15;;;;;;;22.08;14.60;;;;;;;;;;8438954;28;20520;-96
2023/09/11 05:29:19;;;;;;;18.95;14.55;;;;;;;;;;8424275;28;20098;-93
2023/09/11 05:33:23;;;;;;;19.73;13.00;;;;;;;;;;8423785;28;20521;-93
2023/09/11 05:37:38;;;;;;;21.85;13.98;;;;;;;;;;8409497;28;20047;-95
2023/09/11 05:41:42;;;;;;;21.35;13.23;;;;;;;;;;8439711;28;20055;-93
2023/09/11 05:45:45;;;;;;;15.10;10.73;;;;;;;;;;8424864;28;20097;-95
2023/09/11 05:50:00;;;;;;;13.73;8.90;;;;;;;;;;8433507;28;20829;-95
2023/09/11 05:54:05;;;;;;;12.65;7.18;;;;;;;;;;8437958;28;20123;-95
2023/09/11 05:58:08;;;;;;;16.30;7.55;;;;;;;;;;8408250;28;20049;-94
2023/09/11 06:02:11;;;;;;;11.60;7.38;;;;;;;;;;8434551;28;20043;-90
2023/09/11 06:06:14;;;;;;;13.45;6.38;;;;;;;;;;8417447;28;20052;-95
2023/09/11 06:10:19;;;;;;;11.75;6.53;;;;;;;;;;8408053;28;20532;-93
2023/09/11 06:14:28;;;;;;;10.15;6.60;;;;;;;;;;8399342;28;20638;-94
2023/09/11 06:18:31;;;;;;;13.57;6.65;;;;;;;;;;8413661;28;20127;-90
2023/09/11 06:22:34;;;;;;;10.52;6.22;;;;;;;;;;8427164;28;20093;-89
2023/09/11 06:26:39;;;;;;;11.52;6.10;;;;;;;;;;8431905;28;20101;-93
2023/09/11 06:30:42;;;;;;;11.05;5.85;;;;;;;;;;8447139;28;20435;-93
2023/09/11 06:34:45;;;;;;;9.95;5.32;;;;;;;;;;8452873;28;20046;-91
2023/09/11 06:38:48;;;;;;;8.77;4.95;;;;;;;;;;8453321;28;20047;-92
2023/09/11 06:42:53;;;;;;;8.90;5.90;;;;;;;;;;8444810;28;20178;-90
2023/09/11 06:46:56;;;;;;;9.20;5.35;;;;;;;;;;8430573;28;20127;-89
2023/09/11 06:50:58;;;;;;;12.25;5.32;;;;;;;;;;8449907;28;20425;-90
2023/09/11 06:55:01;;;;;;;9.63;5.47;;;;;;;;;;8452327;28;20472;-91
2023/09/11 06:59:07;;;;;;;11.65;6.28;;;;;;;;;;8462137;28;20064;-90
2023/09/11 07:03:11;;;;;;;8.88;5.78;;;;;;;;;;8437095;28;20496;-90
2023/09/11 07:07:15;;;;;;;11.82;6.15;;;;;;;;;;8443109;28;20075;-91
2023/09/11 07:11:18;;;;;;;9.90;6.45;;;;;;;;;;8456300;28;20579;-90
2023/09/11 07:15:23;;;;;;;13.20;6.50;;;;;;;;;;8441374;28;20066;-91
2023/09/11 07:19:26;;;;;;;9.77;6.30;;;;;;;;;;8456402;28;20126;-90
2023/09/11 07:23:29;;;;;;;10.05;6.28;;;;;;;;;;8449791;28;20089;-90
2023/09/11 07:27:33;;;;;;;11.52;6.20;;;;;;;;;;8448787;28;20101;-90
2023/09/11 07:31:37;;;;;;;8.80;6.28;;;;;;;;;;8462838;28;20071;-90
2023/09/11 07:35:40;;;;;;;11.52;5.82;;;;;;;;;;8463007;28;20048;-90
2023/09/11 07:39:51;;;;;;;10.38;6.32;;;;;;;;;;8462792;28;20070;-90
2023/09/11 07:43:54;;;;;;;10.95;6.55;;;;;;;;;;8433979;28;20123;-90
2023/09/11 07:47:59;;;;;;;11.05;6.60;;;;;;;;;;8429243;28;20150;-90
2023/09/11 07:52:02;;;;;;;11.02;6.28;;;;;;;;;;8429049;28;20051;-89
2023/09/11 07:56:08;;;;;;;9.60;6.18;;;;;;;;;;8450415;28;20047;-90
2023/09/11 08:00:14;;;;;;;9.73;5.80;;;;;;;;;;8446832;28;20055;-90
2023/09/11 08:04:19;;;;;;;10.20;5.93;;;;;;;;;;8428740;28;20040;-90
2023/09/11 08:08:22;;;;;;;8.38;6.28;;;;;;;;;;8457531;28;20468;-89
2023/09/11 08:12:25;;;;;;;10.10;6.13;;;;;;;;;;8447984;28;20465;-88
2023/09/11 08:16:30;;;;;;;8.30;6.13;;;;;;;;;;8445979;28;20561;-89
2023/09/11 08:20:36;;;;;;;7.57;5.60;;;;;;;;;;8427566;28;20060;-89
2023/09/11 08:24:39;;;;;;;9.43;6.30;;;;;;;;;;8440977;28;20055;-89
2023/09/11 08:28:42;;;;;;;8.25;6.07;;;;;;;;;;8427453;28;20044;-89
2023/09/11 08:32:48;;;;;;;11.07;6.30;;;;;;;;;;8426966;28;20044;-89
2023/09/11 08:36:56;;;;;;;9.55;6.60;;;;;;;;;;8444009;28;20716;-90
2023/09/11 08:40:59;;;;;;;10.75;6.22;;;;;;;;;;8432840;28;20055;-90
2023/09/11 08:45:03;;;;;;;10.35;6.18;;;;;;;;;;8431143;28;20062;-89
2023/09/11 08:49:09;;;;;;;8.82;6.03;;;;;;;;;;8443165;28;20475;-89
2023/09/11 08:53:18;;;;;;;11.55;6.25;;;;;;;;;;8439037;28;20074;-89
2023/09/11 08:57:25;;;;;;;8.30;5.93;;;;;;;;;;8428573;28;20048;-89
2023/09/11 09:01:30;;;;;;;9.57;6.20;;;;;;;;;;8443460;28;20503;-90
2023/09/11 09:05:34;;;;;;;9.15;6.57;;;;;;;;;;8436075;28;20504;-90
2023/09/11 09:09:40;;;;;;;8.95;5.97;;;;;;;;;;8439099;28;20084;-91
2023/09/11 09:13:45;;;;;;;9.15;6.35;;;;;;;;;;8446677;28;20145;-88
2023/09/11 09:17:49;;;;;;;8.50;6.57;;;;;;;;;;8433323;28;20121;-89
2023/09/11 09:22:10;;;;;;;13.70;6.80;;;;;;;;;;8445988;28;20064;-88
2023/09/11 09:26:15;;;;;;;14.20;6.78;;;;;;;;;;8436618;28;20056;-90
2023/09/11 09:30:23;;;;;;;8.27;6.05;;;;;;;;;;8430468;28;20083;-89
2023/09/11 09:34:26;;;;;;;10.57;6.30;;;;;;;;;;8438065;28;20048;-89
2023/09/11 09:38:29;;;;;;;12.02;6.30;;;;;;;;;;8434845;27;20108;-89
2023/09/11 09:42:41;;;;;;;6.97;5.75;;;;;;;;;;8439409;28;20063;-89
2023/09/11 09:46:45;;;;;;;9.00;6.10;;;;;;;;;;8433088;28;20548;-89
2023/09/11 09:50:58;;;;;;;7.80;6.32;;;;;;;;;;8430712;28;20138;-89
2023/09/11 09:55:03;;;;;;;10.23;6.30;;;;;;;;;;8434028;28;20127;-89
2023/09/11 09:59:09;;;;;;;11.50;6.40;;;;;;;;;;8436320;28;20511;-90
2023/09/11 10:03:12;;;;;;;7.28;5.78;;;;;;;;;;8432720;28;20487;-90
2023/09/11 10:07:15;;;;;;;10.23;6.07;;;;;;;;;;8435795;22;20761;-89
2023/09/11 10:11:28;;;;;;;9.90;6.20;;;;;;;;;;8338151;28;20117;-89
2023/09/11 10:15:33;;;;;;;8.52;5.82;;;;;;;;;;8342149;28;20053;-89
2023/09/11 10:19:38;;;;;;;22.45;5.90;;;;;;;;;;8346298;28;20059;-89
2023/09/11 10:23:41;;;;;;;9.50;5.70;;;;;;;;;;8322110;28;20056;-90
2023/09/11 10:27:46;;;;;;;9.02;5.63;;;;;;;;;;8340915;28;20060;-90
2023/09/11 10:31:56;;;;;;;9.32;5.47;;;;;;;;;;8322800;28;20096;-89
2023/09/11 10:36:07;;;;;;;7.20;5.07;;;;;;;;;;8416552;22;20068;-89
2023/09/11 10:40:11;;;;;;;8.45;5.30;;;;;;;;;;8367851;28;20053;-89
2023/09/11 10:44:15;;;;;;;12.70;8.02;;;;;;;;;;8374039;28;20065;-88
2023/09/11 10:48:32;;;;;;;12.32;6.15;;;;;;;;;;8376574;28;20143;-89
2023/09/11 10:52:35;;;;;;;14.15;7.10;;;;;;;;;;8370730;28;20060;-89
2023/09/11 10:56:39;;;;;;;8.20;5.68;;;;;;;;;;8407064;28;20101;-88
2023/09/11 11:00:43;;;;;;;10.23;5.88;;;;;;;;;;8389643;28;20075;-89
2023/09/11 11:04:48;;;;;;;11.00;6.18;;;;;;;;;;8375614;28;20582;-89
2023/09/11 11:08:52;;;;;;;12.52;6.30;;;;;;;;;;8377597;28;20147;-89
2023/09/11 11:13:07;;;;;;;10.95;6.57;;;;;;;;;;8369185;28;20065;-88
2023/09/11 11:17:12;;;;;;;22.40;8.75;;;;;;;;;;8369512;28;20166;-88
2023/09/11 11:21:17;;;;;;;8.02;6.30;;;;;;;;;;8366745;28;20041;-88
2023/09/11 11:25:19;;;;;;;9.10;5.95;;;;;;;;;;8363051;28;20095;-89
2023/09/11 11:29:27;;;;;;;9.65;5.78;;;;;;;;;;8402980;28;20551;-88
2023/09/11 11:33:33;;;;;;;10.23;5.60;;;;;;;;;;8408724;28;20143;-86
2023/09/11 11:37:45;;;;;;;10.50;5.10;;;;;;;;;;8403235;28;20072;-87
2023/09/11 11:41:49;;;;;;;7.47;5.20;;;;;;;;;;8409673;28;20040;-88
2023/09/11 11:45:52;;;;;;;9.05;5.05;;;;;;;;;;8369758;28;20049;-88
2023/09/11 11:49:54;;;;;;;7.50;5.53;;;;;;;;;;8384724;28;20045;-89
2023/09/11 11:53:59;;;;;;;7.07;5.30;;;;;;;;;;8405337;28;20123;-88
2023/09/11 11:58:04;;;;;;;9.43;5.60;;;;;;;;;;8399412;28;20045;-88
2023/09/11 12:02:20;;;;;;;10.82;5.78;;;;;;;;;;8396107;28;20477;-88
2023/09/11 12:06:23;;;;;;;18.33;6.53;;;;;;;;;;8389831;28;20534;-88
2023/09/11 12:10:27;;;;;;;14.55;6.28;;;;;;;;;;8395461;28;20385;-87
2023/09/11 12:14:30;;;;;;;9.02;5.57;;;;;;;;;;8397650;28;20064;-87
2023/09/11 12:18:37;;;;;;;7.35;6.00;;;;;;;;;;8401940;28;20048;-89
2023/09/11 12:22:42;;;;;;;21.27;9.95;;;;;;;;;;8402015;28;20051;-88
2023/09/11 12:26:46;;;;;;;18.10;8.38;;;;;;;;;;8401809;28;20049;-88
2023/09/11 12:30:50;;;;;;;19.77;9.38;;;;;;;;;;8400930;28;20423;-89
2023/09/11 12:34:53;;;;;;;11.88;6.88;;;;;;;;;;8370901;28;20513;-88
2023/09/11 12:38:56;;;;;;;11.00;5.72;;;;;;;;;;8358041;28;20132;-88
2023/09/11 12:43:03;;;;;;;9.75;6.40;;;;;;;;;;8340801;28;20079;-89
2023/09/11 12:47:07;;;;;;;9.38;6.38;;;;;;;;;;8393404;28;20075;-88
2023/09/11 12:51:10;;;;;;;10.57;5.70;;;;;;;;;;8368196;28;20488;-88
2023/09/11 12:55:13;;;;;;;11.48;6.03;;;;;;;;;;8367621;28;20044;-89
2023/09/11 12:59:18;;;;;;;10.30;6.03;;;;;;;;;;8340695;28;20081;-88
2023/09/11 13:03:22;;;;;;;10.02;6.55;;;;;;;;;;8367746;28;20056;-88
2023/09/11 13:07:26;;;;;;;7.18;5.57;;;;;;;;;;8349806;28;20053;-88
2023/09/11 13:11:29;;;;;;;11.40;6.25;;;;;;;;;;8367102;28;20053;-88
2023/09/11 13:15:34;;;;;;;9.55;5.90;;;;;;;;;;8383410;28;20053;-88
2023/09/11 13:19:37;;;;;;;10.88;6.95;;;;;;;;;;8366396;28;20105;-88
2023/09/11 13:23:41;;;;;;;11.40;6.22;;;;;;;;;;8380142;28;20047;-88
2023/09/11 13:27:44;;;;;;;8.02;5.85;;;;;;;;;;8366559;28;20056;-88
2023/09/11 13:31:51;;;;;;;9.80;6.15;;;;;;;;;;8350407;28;20063;-87
2023/09/11 13:35:54;;;;;;;12.90;5.32;;;;;;;;;;8365568;28;20103;-87
2023/09/11 13:39:57;;;;;;;11.35;6.28;;;;;;;;;;8382929;28;20435;-87
2023/09/11 13:44:00;;;;;;;11.07;6.40;;;;;;;;;;8399754;28;20048;-88
2023/09/11 13:48:05;;;;;;;12.05;6.43;;;;;;;;;;8398914;28;20052;-89
2023/09/11 13:52:08;;;;;;;10.52;5.78;;;;;;;;;;8399822;28;20076;-87
2023/09/11 13:56:12;;;;;;;10.57;6.10;;;;;;;;;;8381270;28;20060;-89
2023/09/11 14:00:16;;;;;;;9.05;5.65;;;;;;;;;;8376936;28;20040;-90
2023/09/11 14:04:21;;;;;;;9.23;6.45;;;;;;;;;;8364324;28;20505;-88
2023/09/11 14:08:24;;;;;;;8.30;6.57;;;;;;;;;;8356760;28;20390;-88
2023/09/11 14:12:27;;;;;;;8.57;6.25;;;;;;;;;;8360209;28;20060;-87
2023/09/11 14:16:31;;;;;;;11.90;6.22;;;;;;;;;;8368959;28;20056;-89
2023/09/11 14:20:38;;;;;;;8.10;6.43;;;;;;;;;;8367413;28;20056;-88
2023/09/11 14:24:42;;;;;;;9.20;6.40;;;;;;;;;;8343585;28;20084;-89
2023/09/11 14:28:45;;;;;;;9.32;6.38;;;;;;;;;;8378926;28;20103;-89
2023/09/11 14:32:48;;;;;;;10.43;6.75;;;;;;;;;;8361838;28;20071;-90
2023/09/11 14:36:54;;;;;;;10.65;6.53;;;;;;;;;;8372274;28;20044;-90
2023/09/11 14:40:58;;;;;;;10.07;6.32;;;;;;;;;;8391006;28;20045;-88
2023/09/11 14:45:02;;;;;;;9.75;6.45;;;;;;;;;;8386846;28;20507;-89
2023/09/11 14:49:07;;;;;;;21.35;8.77;;;;;;;;;;8385605;28;20131;-89
2023/09/11 14:53:16;;;;;;;12.35;6.53;;;;;;;;;;8368749;28;20558;-90
2023/09/11 14:57:19;;;;;;;9.10;6.63;;;;;;;;;;8378946;28;20045;-89
2023/09/11 15:01:23;;;;;;;9.15;6.88;;;;;;;;;;8375217;28;20101;-89
2023/09/11 15:05:28;;;;;;;9.82;6.75;;;;;;;;;;8362002;28;20076;-90
2023/09/11 15:09:34;;;;;;;13.25;6.85;;;;;;;;;;8364053;28;20044;-89
2023/09/11 15:13:37;;;;;;;9.55;6.85;;;;;;;;;;8378003;28;20076;-89
2023/09/11 15:17:40;;;;;;;9.60;6.97;;;;;;;;;;8369867;28;20075;-90
2023/09/11 15:21:43;;;;;;;10.68;7.18;;;;;;;;;;8386269;28;20159;-89
2023/09/11 15:25:48;;;;;;;10.82;6.97;;;;;;;;;;8372617;28;20045;-89
2023/09/11 15:29:51;;;;;;;10.75;6.68;;;;;;;;;;8381285;28;20056;-89
2023/09/11 15:33:54;;;;;;;13.40;6.65;;;;;;;;;;8453609;22;20069;-90
2023/09/11 15:37:57;;;;;;;10.52;7.07;;;;;;;;;;8367005;22;20053;-89
2023/09/11 15:42:07;;;;;;;9.68;6.85;;;;;;;;;;8370374;28;20041;-89
2023/09/11 15:46:12;;;;;;;10.10;6.90;;;;;;;;;;8348061;28;20060;-90
2023/09/11 15:50:15;;;;;;;14.43;7.45;;;;;;;;;;8330586;28;20053;-89
2023/09/11 15:54:18;;;;;;;15.52;7.10;;;;;;;;;;8346267;28;20579;-90
2023/09/11 15:58:26;;;;;;;10.57;7.30;;;;;;;;;;8334957;28;20142;-90
2023/09/11 16:02:30;;;;;;;11.30;7.35;;;;;;;;;;8341031;28;20128;-89
2023/09/11 16:06:34;;;;;;;10.50;7.30;;;;;;;;;;8337228;28;20080;-90
2023/09/11 16:10:38;;;;;;;11.57;8.20;;;;;;;;;;8316438;28;20546;-89
2023/09/11 16:14:44;;;;;;;12.13;8.25;;;;;;;;;;8325732;28;20073;-91
2023/09/11 16:18:48;;;;;;;15.00;8.55;;;;;;;;;;8330522;28;20157;-91
2023/09/11 16:22:51;;;;;;;13.40;9.00;;;;;;;;;;8327681;28;20060;-90
2023/09/11 16:26:54;;;;;;;12.85;8.73;;;;;;;;;;8316447;28;20365;-89
2023/09/11 16:31:01;;;;;;;11.82;8.40;;;;;;;;;;8318969;28;20104;-89
2023/09/11 16:35:05;;;;;;;24.77;10.25;;;;;;;;;;8346443;28;20067;-91
2023/09/11 16:39:09;;;;;;;14.30;9.55;;;;;;;;;;8300432;28;20045;-92
2023/09/11 16:43:13;;;;;;;17.55;10.45;;;;;;;;;;8291190;28;20084;-91
2023/09/11 16:47:21;;;;;;;14.77;10.13;;;;;;;;;;8310757;28;20592;-91
2023/09/11 16:51:25;;;;;;;16.33;11.57;;;;;;;;;;8301101;28;20088;-90
2023/09/11 16:55:29;;;;;;;17.58;11.85;;;;;;;;;;8284602;28;20112;-90
2023/09/11 16:59:33;;;;;;;16.42;11.32;;;;;;;;;;8312267;28;20504;-91
2023/09/11 17:03:37;;;;;;;12.00;9.55;;;;;;;;;;8296596;28;20045;-90
2023/09/11 17:07:41;;;;;;;19.75;11.52;;;;;;;;;;8288101;28;20511;-91
2023/09/11 17:11:45;;;;;;;20.15;11.13;;;;;;;;;;8287865;28;20137;-91
2023/09/11 17:15:50;;;;;;;19.13;12.10;;;;;;;;;;8315029;28;20065;-92
2023/09/11 17:19:56;;;;;;;22.80;12.68;;;;;;;;;;8308713;28;20140;-89
2023/09/11 17:24:02;;;;;;;25.88;11.75;;;;;;;;;;8304584;28;20089;-93
2023/09/11 17:28:05;;;;;;;18.85;12.35;;;;;;;;;;8314048;28;20111;-92
2023/09/11 17:32:19;;;;;;;21.23;12.35;;;;;;;;;;8323365;28;20045;-91
2023/09/11 17:36:37;;;;;;;24.17;12.40;;;;;;;;;;8315427;28;20413;-90
2023/09/11 17:40:46;;;;;;;22.70;12.88;;;;;;;;;;8390519;22;20111;-91
2023/09/11 17:44:51;;;;;;;17.88;12.15;;;;;;;;;;8376718;23;20126;-91
2023/09/11 17:49:02;;;;;;;21.95;12.40;;;;;;;;;;8364200;28;20052;-90
2023/09/11 17:53:22;;;;;;;18.20;12.70;;;;;;;;;;8366074;28;20040;-91
2023/09/11 17:57:26;;;;;;;21.48;14.25;;;;;;;;;;8366131;28;20056;-91
2023/09/11 18:01:30;;;;;;;23.05;14.48;;;;;;;;;;8347793;28;20056;-89
2023/09/11 18:05:34;;;;;;;21.85;14.27;;;;;;;;;;8445255;23;20052;-89
2023/09/11 18:09:43;;;;;;;19.35;14.13;;;;;;;;;;8410090;28;20357;-92
2023/09/11 18:13:49;;;;;;;21.80;13.57;;;;;;;;;;8398931;28;20049;-92
2023/09/11 18:17:53;;;;;;;90.13;34.22;;;;;;;;;;8408083;28;20048;-94
2023/09/11 18:22:00;;;;;;;31.48;17.80;;;;;;;;;;8417354;28;20131;-91
2023/09/11 18:26:11;;;;;;;26.73;16.13;;;;;;;;;;8408122;28;20052;-92
2023/09/11 18:30:16;;;;;;;20.92;15.32;;;;;;;;;;8411179;28;20050;-91
2023/09/11 18:34:20;;;;;;;22.23;15.20;;;;;;;;;;8431718;28;20440;-91
2023/09/11 18:38:25;;;;;;;20.63;14.55;;;;;;;;;;8419129;28;20489;-93
2023/09/11 18:42:30;;;;;;;25.20;15.65;;;;;;;;;;8413956;28;20443;-92
2023/09/11 18:46:35;;;;;;;21.75;15.32;;;;;;;;;;8409510;28;20052;-92
2023/09/11 18:50:42;;;;;;;21.10;14.68;;;;;;;;;;8432026;28;20408;-91
2023/09/11 18:54:47;;;;;;;23.02;16.35;;;;;;;;;;8409009;28;20048;-91
2023/09/11 18:58:53;;;;;;;22.27;15.55;;;;;;;;;;8402484;28;20407;-92
2023/09/11 19:02:58;;;;;;;23.02;16.00;;;;;;;;;;8409838;22;20130;-90
2023/09/11 19:07:07;;;;;;;21.92;16.13;;;;;;;;;;8443946;28;20047;-93
2023/09/11 19:11:13;;;;;;;20.67;15.73;;;;;;;;;;8417813;28;20052;-93
2023/09/11 19:15:22;;;;;;;21.52;16.48;;;;;;;;;;8444649;28;20043;-92
2023/09/11 19:19:27;;;;;;;22.40;16.23;;;;;;;;;;8380480;28;20049;-93
2023/09/11 19:23:32;;;;;;;21.83;16.17;;;;;;;;;;8417073;28;20411;-94
2023/09/11 19:27:37;;;;;;;23.48;16.40;;;;;;;;;;8430591;28;20079;-92
2023/09/11 19:31:54;;;;;;;25.25;16.38;;;;;;;;;;8411692;28;20040;-91
2023/09/11 19:36:03;;;;;;;26.00;16.35;;;;;;;;;;8408635;28;20048;-92
2023/09/11 19:40:10;;;;;;;22.48;16.13;;;;;;;;;;8406963;28;20052;-92
2023/09/11 19:44:16;;;;;;;21.48;15.77;;;;;;;;;;8386807;28;20052;-93
2023/09/11 19:48:22;;;;;;;22.23;15.23;;;;;;;;;;8396958;28;20119;-92
2023/09/11 19:52:27;;;;;;;27.65;16.38;;;;;;;;;;8417836;28;20127;-92
2023/09/11 19:56:34;;;;;;;23.88;16.73;;;;;;;;;;8412393;28;20066;-91
2023/09/11 20:00:41;;;;;;;24.08;15.55;;;;;;;;;;8429399;28;20060;-93
2023/09/11 20:04:48;;;;;;;25.80;16.73;;;;;;;;;;8418861;28;20075;-94
2023/09/11 20:08:55;;;;;;;23.15;16.42;;;;;;;;;;8402625;28;20060;-93
2023/09/11 20:12:59;;;;;;;25.73;16.92;;;;;;;;;;8433260;28;20040;-93
2023/09/11 20:17:06;;;;;;;24.15;16.60;;;;;;;;;;8397611;28;20044;-93
2023/09/11 20:21:11;;;;;;;24.58;16.85;;;;;;;;;;8391757;28;20123;-92
2023/09/11 20:25:25;;;;;;;24.60;17.48;;;;;;;;;;8411676;28;20040;-92
2023/09/11 20:29:30;;;;;;;28.08;19.33;;;;;;;;;;8416860;28;20048;-93
2023/09/11 20:33:35;;;;;;;29.80;18.77;;;;;;;;;;8413635;28;20047;-94
2023/09/11 20:37:42;;;;;;;27.25;18.02;;;;;;;;;;8412463;28;20048;-94
2023/09/11 20:41:48;;;;;;;25.40;17.75;;;;;;;;;;8415548;28;20485;-93
2023/09/11 20:45:53;;;;;;;25.38;17.40;;;;;;;;;;8414717;28;20408;-91
2023/09/11 20:49:57;;;;;;;27.17;19.13;;;;;;;;;;8404648;28;20044;-92
2023/09/11 20:54:02;;;;;;;25.98;17.85;;;;;;;;;;8428015;28;20119;-92
2023/09/11 20:58:06;;;;;;;30.45;18.75;;;;;;;;;;8406269;28;20487;-92
2023/09/11 21:02:25;;;;;;;35.40;19.98;;;;;;;;;;8412992;28;20080;-91
2023/09/11 21:06:28;;;;;;;30.92;19.98;;;;;;;;;;8390026;28;20037;-90
2023/09/11 21:10:39;;;;;;;26.35;18.45;;;;;;;;;;8389075;28;20127;-93
2023/09/11 21:14:42;;;;;;;28.70;18.65;;;;;;;;;;8402241;28;20048;-93
2023/09/11 21:18:45;;;;;;;29.90;19.77;;;;;;;;;;8394797;28;20095;-93
2023/09/11 21:22:48;;;;;;;29.40;19.88;;;;;;;;;;8355879;28;20069;-94
2023/09/11 21:26:53;;;;;;;29.17;20.42;;;;;;;;;;8370195;28;20075;-92
2023/09/11 21:30:59;;;;;;;30.63;19.35;;;;;;;;;;8402087;28;20045;-92
2023/09/11 21:35:02;;;;;;;31.77;20.20;;;;;;;;;;8403560;28;20048;-94
2023/09/11 21:39:05;;;;;;;29.38;21.10;;;;;;;;;;8396060;28;20052;-94
2023/09/11 21:43:10;;;;;;;32.58;20.90;;;;;;;;;;8388895;28;20044;-92
2023/09/11 21:47:12;;;;;;;31.15;20.95;;;;;;;;;;8387869;28;20419;-92
2023/09/11 21:51:15;;;;;;;28.60;19.50;;;;;;;;;;8386710;28;20045;-92
2023/09/11 21:55:18;;;;;;;30.90;19.38;;;;;;;;;;8378142;28;20131;-91
2023/09/11 21:59:26;;;;;;;32.38;19.30;;;;;;;;;;8401014;28;20040;-93
2023/09/11 22:03:30;;;;;;;29.67;19.38;;;;;;;;;;8420874;28;20511;-93
2023/09/11 22:07:34;;;;;;;27.50;19.63;;;;;;;;;;8404253;28;20408;-92
2023/09/11 22:11:39;;;;;;;34.63;20.95;;;;;;;;;;8450122;28;20048;-93
2023/09/11 22:15:46;;;;;;;28.65;19.33;;;;;;;;;;8441885;28;20151;-92
2023/09/11 22:19:50;;;;;;;32.05;19.73;;;;;;;;;;8431961;28;20044;-94
2023/09/11 22:23:53;;;;;;;29.33;19.38;;;;;;;;;;8413668;28;20044;-92
2023/09/11 22:27:56;;;;;;;29.58;20.90;;;;;;;;;;8413400;28;20055;-92
2023/09/11 22:32:01;;;;;;;35.00;21.75;;;;;;;;;;8422351;28;20047;-92
2023/09/11 22:36:04;;;;;;;34.05;21.52;;;;;;;;;;8436278;28;20114;-93
2023/09/11 22:40:09;;;;;;;30.98;21.20;;;;;;;;;;8421288;28;20075;-91
2023/09/11 22:44:12;;;;;;;35.83;21.40;;;;;;;;;;8430524;28;20047;-93
2023/09/11 22:48:17;;;;;;;33.83;21.73;;;;;;;;;;8434470;28;20123;-94
2023/09/11 22:52:20;;;;;;;32.25;20.45;;;;;;;;;;8433355;28;20036;-94
2023/09/11 22:56:23;;;;;;;30.33;20.20;;;;;;;;;;8416339;28;20056;-94
2023/09/11 23:00:27;;;;;;;35.35;21.42;;;;;;;;;;8419346;28;20418;-93
2023/09/11 23:04:31;;;;;;;33.63;21.30;;;;;;;;;;8426257;28;20055;-94
2023/09/11 23:08:35;;;;;;;37.17;21.27;;;;;;;;;;8406068;28;20044;-91
2023/09/11 23:12:37;;;;;;;34.55;22.13;;;;;;;;;;8410247;28;20047;-94
2023/09/11 23:16:41;;;;;;;31.08;21.75;;;;;;;;;;8476588;27;20407;-93
2023/09/11 23:20:45;;;;;;;35.38;21.25;;;;;;;;;;8443505;28;20051;-94
2023/09/11 23:24:49;;;;;;;33.97;21.83;;;;;;;;;;8456880;28;20035;-92
2023/09/11 23:28:52;;;;;;;35.17;22.13;;;;;;;;;;8475296;28;20040;-92
2023/09/11 23:37:18;;;;;;;42.30;24.23;;;;;;;;;;8447368;28;20071;-92
2023/09/11 23:41:21;;;;;;;34.28;21.88;;;;;;;;;;8446233;28;20044;-92
2023/09/11 23:45:30;;;;;;;39.20;22.08;;;;;;;;;;8447397;28;20048;-92
2023/09/11 23:49:33;;;;;;;36.28;22.65;;;;;;;;;;8406209;28;20109;-90
2023/09/11 23:53:37;;;;;;;38.30;23.65;;;;;;;;;;8394510;28;20068;-93
2023/09/11 23:57:43;;;;;;;36.28;21.80;;;;;;;;;;8407377;28;20053;-94
